Kaniere, New Zealand
Current Conditions -  °F | °C
As of 8:00 AM on Monday 24 Nov 2014 (Local Time) from NZCH Reporting Station
Clear Clear  
Wind Chill: 64°   Ceiling: Unl
Heat Index: 64°   Visibility: 6mi
Dew Point: 50°   Wind: 6mph
Humidity: 59%   Direction: 220°SW
Pressure: 29.91"   Gusts: NA
Location:  42.75°S, 171.01°E
Report Text: NZCH 232000Z AUTO 22005KT 180V260 9999 NCD 18/10 Q1013 NOSIG
Loading
Personal Weather Stations






























Interactive Weather Map New forecast layout! Learn more

10-Day Weather Forecast

Advertisements
Track Severe Weather on mobile